createdAt,value
2018-10-21T00:03:38.181Z,1027.7
2018-10-21T00:08:38.201Z,1027.7
2018-10-21T00:13:38.391Z,1027.8
2018-10-21T00:18:39.500Z,1027.6
2018-10-21T00:23:39.227Z,1027.7
2018-10-21T00:28:51.858Z,1027.7
2018-10-21T00:33:51.726Z,1027.7
2018-10-21T00:38:51.622Z,1027.8
2018-10-21T00:43:51.602Z,1027.9
2018-10-21T00:48:51.843Z,1027.9
2018-10-21T00:53:51.797Z,1027.8
2018-10-21T00:58:51.800Z,1027.8
2018-10-21T01:03:51.984Z,1027.7
2018-10-21T01:08:51.895Z,1027.6
2018-10-21T01:14:03.995Z,1027.6
2018-10-21T01:19:03.941Z,1027.8
2018-10-21T01:24:03.848Z,1027.8
2018-10-21T01:29:03.924Z,1027.8
2018-10-21T01:34:03.689Z,1027.8
2018-10-21T01:39:03.995Z,1027.7
2018-10-21T01:44:03.735Z,1027.6
2018-10-21T01:49:03.814Z,1027.5
2018-10-21T01:54:03.826Z,1027.5
2018-10-21T01:59:16.292Z,1027.5
2018-10-21T02:04:15.854Z,1027.4
2018-10-21T02:09:16.526Z,1027.4
2018-10-21T02:14:16.503Z,1027.5
2018-10-21T02:19:15.896Z,1027.5
2018-10-21T02:24:16.041Z,1027.6
2018-10-21T02:29:15.914Z,1027.5
2018-10-21T02:34:17.344Z,1027.7
2018-10-21T02:39:17.414Z,1027.8
2018-10-21T02:44:29.724Z,1027.8
2018-10-21T02:49:29.553Z,1027.7
2018-10-21T02:54:29.588Z,1027.7
2018-10-21T02:59:29.400Z,1027.7
2018-10-21T03:04:29.658Z,1027.8
2018-10-21T03:09:29.753Z,1027.8
2018-10-21T03:14:29.596Z,1027.9
2018-10-21T03:19:31.267Z,1027.7
2018-10-21T03:24:31.189Z,1027.7
2018-10-21T03:29:44.152Z,1027.7
2018-10-21T03:34:44.062Z,1027.8
2018-10-21T03:39:43.990Z,1027.9
2018-10-21T03:44:43.845Z,1027.9
2018-10-21T03:49:44.062Z,1027.8
2018-10-21T03:54:44.093Z,1027.9
2018-10-21T03:59:44.011Z,1027.8
2018-10-21T04:04:44.783Z,1027.8
2018-10-21T04:09:44.672Z,1027.8
2018-10-21T04:14:56.878Z,1027.7
2018-10-21T04:19:56.735Z,1027.6
2018-10-21T04:24:56.776Z,1027.6
2018-10-21T04:29:56.663Z,1027.7
2018-10-21T04:34:56.711Z,1027.8
2018-10-21T04:39:56.820Z,1028
2018-10-21T04:44:56.721Z,1028
2018-10-21T04:49:59.432Z,1027.8
2018-10-21T04:54:59.168Z,1027.8
2018-10-21T05:00:10.853Z,1027.8
2018-10-21T05:05:10.896Z,1027.9
2018-10-21T05:10:11.220Z,1027.9
2018-10-21T05:15:11.128Z,1028
2018-10-21T05:20:10.733Z,1028
2018-10-21T05:25:10.820Z,1028
2018-10-21T05:30:10.706Z,1028.1
2018-10-21T05:35:10.992Z,1028
2018-10-21T05:40:11.376Z,1028.1
2018-10-21T05:45:23.092Z,1028.3
2018-10-21T05:50:22.948Z,1028.3
2018-10-21T05:55:22.994Z,1028.1
2018-10-21T06:00:22.788Z,1028.2
2018-10-21T06:05:22.954Z,1028.3
2018-10-21T06:10:22.997Z,1028.4
2018-10-21T06:15:23.056Z,1028.3
2018-10-21T06:20:23.321Z,1028.4
2018-10-21T06:25:23.053Z,1028.5
2018-10-21T06:30:36.244Z,1028.6
2018-10-21T06:35:36.095Z,1028.5
2018-10-21T06:40:36.097Z,1028.6
2018-10-21T06:45:36.683Z,1028.7
2018-10-21T06:50:36.193Z,1028.6
2018-10-21T06:55:35.983Z,1028.5
2018-10-21T07:00:36.132Z,1028.4
2018-10-21T07:05:36.747Z,1028.5
2018-10-21T07:10:36.625Z,1028.5
2018-10-21T07:15:49.987Z,1028.6
2018-10-21T07:20:49.191Z,1028.7
2018-10-21T07:25:49.338Z,1028.8
2018-10-21T07:30:49.043Z,1029
2018-10-21T07:35:49.076Z,1028.9
2018-10-21T07:40:49.063Z,1028.7
2018-10-21T07:45:49.059Z,1028.8
2018-10-21T07:50:49.957Z,1028.7
2018-10-21T07:55:50.109Z,1028.7
2018-10-21T08:01:02.465Z,1028.7
2018-10-21T08:06:01.694Z,1028.7
2018-10-21T08:11:01.741Z,1028.9
2018-10-21T08:16:01.911Z,1029.1
2018-10-21T08:21:01.912Z,1029.1
2018-10-21T08:26:01.713Z,1029.1
2018-10-21T08:31:01.695Z,1029
2018-10-21T08:36:03.412Z,1028.9
2018-10-21T08:41:01.671Z,1029
2018-10-21T08:46:14.864Z,1029
2018-10-21T08:51:14.241Z,1029
2018-10-21T08:56:14.303Z,1028.9
2018-10-21T09:01:14.629Z,1028.7
2018-10-21T09:06:14.243Z,1028.7
2018-10-21T09:11:14.263Z,1028.6
2018-10-21T09:16:14.730Z,1028.6
2018-10-21T09:21:15.364Z,1028.5
2018-10-21T09:26:15.144Z,1028.5
2018-10-21T09:31:27.564Z,1028.5
2018-10-21T09:36:27.308Z,1028.5
2018-10-21T09:41:27.328Z,1028.6
2018-10-21T09:46:27.269Z,1028.6
2018-10-21T09:51:27.301Z,1028.6
2018-10-21T09:56:27.328Z,1028.6
2018-10-21T10:01:27.475Z,1028.6
2018-10-21T10:06:27.505Z,1028.7
2018-10-21T10:11:27.591Z,1028.6
2018-10-21T10:16:39.335Z,1028.6
2018-10-21T10:21:39.028Z,1028.5
2018-10-21T10:26:39.198Z,1028.4
2018-10-21T10:31:39.042Z,1028.3
2018-10-21T10:36:40.257Z,1028.2
2018-10-21T10:41:39.257Z,1028.3
2018-10-21T10:46:39.046Z,1028.1
2018-10-21T10:51:42.307Z,1028.1
2018-10-21T10:56:39.208Z,1028.2
2018-10-21T11:01:51.300Z,1028.2
2018-10-21T11:06:51.162Z,1028.1
2018-10-21T11:11:51.028Z,1028.1
2018-10-21T11:16:51.050Z,1028
2018-10-21T11:21:51.490Z,1028
2018-10-21T11:26:51.081Z,1028
2018-10-21T11:31:50.999Z,1028.1
2018-10-21T11:36:53.673Z,1028.1
2018-10-21T11:41:53.248Z,1028
2018-10-21T11:47:03.737Z,1028
2018-10-21T11:52:03.578Z,1028.1
2018-10-21T11:57:03.480Z,1027.9
2018-10-21T12:02:03.465Z,1027.9
2018-10-21T12:07:03.668Z,1027.9
2018-10-21T12:12:03.483Z,1027.8
2018-10-21T12:17:03.493Z,1027.8
2018-10-21T12:22:06.286Z,1027.9
2018-10-21T12:27:05.636Z,1027.8
2018-10-21T12:32:16.569Z,1027.8
2018-10-21T12:37:16.673Z,1027.9
2018-10-21T12:42:16.336Z,1027.8
2018-10-21T12:47:16.686Z,1027.7
2018-10-21T12:52:16.711Z,1027.6
2018-10-21T12:57:16.392Z,1027.6
2018-10-21T13:02:16.769Z,1027.5
2018-10-21T13:07:17.750Z,1027.5
2018-10-21T13:12:17.258Z,1027.5
2018-10-21T13:17:29.713Z,1027.4
2018-10-21T13:22:29.680Z,1027.4
2018-10-21T13:27:29.477Z,1027.4
2018-10-21T13:32:29.712Z,1027.4
2018-10-21T13:37:29.513Z,1027.3
2018-10-21T13:42:29.733Z,1027.5
2018-10-21T13:47:29.876Z,1027.2
2018-10-21T13:52:30.063Z,1027.4
2018-10-21T13:57:29.463Z,1027.4
2018-10-21T14:02:42.186Z,1027.3
2018-10-21T14:07:41.847Z,1027.2
2018-10-21T14:12:41.874Z,1027.3
2018-10-21T14:17:41.841Z,1027.2
2018-10-21T14:22:42.023Z,1027.1
2018-10-21T14:27:42.339Z,1027.3
2018-10-21T14:32:41.888Z,1027.2
2018-10-21T14:37:42.301Z,1027.2
2018-10-21T14:42:41.980Z,1027.2
2018-10-21T14:47:54.035Z,1027.1
2018-10-21T14:52:54.155Z,1027.3
2018-10-21T14:57:53.562Z,1027.1
2018-10-21T15:02:53.988Z,1027.2
2018-10-21T15:07:53.914Z,1027.2
2018-10-21T15:12:53.566Z,1027.2
2018-10-21T15:17:53.945Z,1027.3
2018-10-21T15:22:54.363Z,1027.3
2018-10-21T15:27:54.063Z,1027.2
2018-10-21T15:33:06.780Z,1027.3
2018-10-21T15:38:07.082Z,1027.3
2018-10-21T15:43:06.509Z,1027.3
2018-10-21T15:48:06.569Z,1027.3
2018-10-21T15:53:06.691Z,1027.4
2018-10-21T15:58:06.937Z,1027.4
2018-10-21T16:03:06.524Z,1027.5
2018-10-21T16:08:08.120Z,1027.5
2018-10-21T16:13:07.591Z,1027.5
2018-10-21T16:18:19.814Z,1027.5
2018-10-21T16:23:19.546Z,1027.5
2018-10-21T16:28:20.338Z,1027.6
2018-10-21T16:33:22.777Z,1027.8
2018-10-21T16:38:20.853Z,1027.8
2018-10-21T16:43:19.525Z,1027.9
2018-10-21T16:48:19.512Z,1027.9
2018-10-21T16:53:23.599Z,1028
2018-10-21T16:58:23.025Z,1028
2018-10-21T17:03:36.080Z,1028.1
2018-10-21T17:08:35.439Z,1028.1
2018-10-21T17:13:35.401Z,1028.1
2018-10-21T17:18:35.392Z,1028
2018-10-21T17:23:35.562Z,1028.1
2018-10-21T17:28:35.614Z,1028
2018-10-21T17:33:35.580Z,1028.1
2018-10-21T17:38:35.580Z,1028.2
2018-10-21T17:43:35.592Z,1028.2
2018-10-21T17:48:48.153Z,1028.2
2018-10-21T17:53:48.255Z,1028.4
2018-10-21T17:58:48.378Z,1028.4
2018-10-21T18:03:47.933Z,1028.4
2018-10-21T18:08:48.440Z,1028.4
2018-10-21T18:13:48.171Z,1028.5
2018-10-21T18:18:48.157Z,1028.5
2018-10-21T18:23:53.206Z,1028.5
2018-10-21T18:28:52.943Z,1028.7
2018-10-21T18:34:05.881Z,1028.7
2018-10-21T18:39:05.202Z,1028.5
2018-10-21T18:44:05.108Z,1028.7
2018-10-21T18:49:06.671Z,1028.7
2018-10-21T18:54:05.754Z,1028.6
2018-10-21T18:59:05.113Z,1028.5
2018-10-21T19:04:06.669Z,1028.7
2018-10-21T19:09:06.685Z,1028.6
2018-10-21T19:14:06.507Z,1028.7
2018-10-21T19:19:20.184Z,1028.6
2018-10-21T19:24:20.202Z,1028.7
2018-10-21T19:29:20.593Z,1028.6
2018-10-21T19:34:20.340Z,1028.7
2018-10-21T19:39:20.049Z,1028.6
2018-10-21T19:44:20.527Z,1028.6
2018-10-21T19:49:20.676Z,1028.6
2018-10-21T19:54:23.460Z,1028.6
2018-10-21T19:59:22.032Z,1028.6
2018-10-21T20:04:38.174Z,1028.6
2018-10-21T20:09:37.335Z,1028.6
2018-10-21T20:14:38.422Z,1028.6
2018-10-21T20:19:37.430Z,1028.6
2018-10-21T20:24:37.910Z,1028.7
2018-10-21T20:29:39.430Z,1028.6
2018-10-21T20:34:39.590Z,1028.6
2018-10-21T20:39:39.511Z,1028.7
2018-10-21T20:44:39.736Z,1028.6
2018-10-21T20:49:54.791Z,1028.6
2018-10-21T20:54:54.546Z,1028.6
2018-10-21T20:59:54.927Z,1028.5
2018-10-21T21:04:54.741Z,1028.5
2018-10-21T21:09:54.890Z,1028.5
2018-10-21T21:14:55.716Z,1028.5
2018-10-21T21:19:54.561Z,1028.5
2018-10-21T21:24:55.978Z,1028.5
2018-10-21T21:29:55.906Z,1028.5
2018-10-21T21:35:08.052Z,1028.5
2018-10-21T21:40:08.324Z,1028.4
2018-10-21T21:45:07.869Z,1028.4
2018-10-21T21:50:07.888Z,1028.4
2018-10-21T21:55:07.731Z,1028.3
2018-10-21T22:00:08.183Z,1028.4
2018-10-21T22:05:07.839Z,1028.4
2018-10-21T22:10:08.222Z,1028.2
2018-10-21T22:15:07.754Z,1028.2
2018-10-21T22:20:20.210Z,1028.2
2018-10-21T22:25:20.021Z,1028.1
2018-10-21T22:30:20.055Z,1028.1
2018-10-21T22:35:20.006Z,1028.2
2018-10-21T22:40:20.302Z,1028.1
2018-10-21T22:45:19.924Z,1028.2
2018-10-21T22:50:20.029Z,1028.2
2018-10-21T22:55:22.306Z,1028.2
2018-10-21T23:00:22.235Z,1028.2
2018-10-21T23:05:34.431Z,1028.2
2018-10-21T23:10:34.367Z,1028.3
2018-10-21T23:15:34.306Z,1028.3
2018-10-21T23:20:34.340Z,1028.3
2018-10-21T23:25:34.374Z,1028.3
2018-10-21T23:30:34.294Z,1028.2
2018-10-21T23:35:34.342Z,1028.1
2018-10-21T23:40:34.908Z,1028.3
2018-10-21T23:45:34.645Z,1028.3
2018-10-21T23:50:47.198Z,1028.3
2018-10-21T23:55:47.014Z,1028.3
